Time;durP1;ratioP1;P1;durP2;ratioP2;P2;SDS_P1;SDS_P2;PMS_P1;PMS_P2;Temp;Humidity;BMP_temperature;BMP_pressure;BME280_temperature;BME280_humidity;BME280_pressure;Samples;Min_cycle;Max_cycle;Signal;HPM_P1;HPM_P2
2023/09/07 00:01:52;;;;;;;77.23;21.57;;;18.40;99.90;;;;;;4998085;28;20178;-83
2023/09/07 00:04:19;;;;;;;78.87;23.30;;;18.50;99.90;;;;;;4998890;28;20570;-83
2023/09/07 00:06:45;;;;;;;79.90;27.50;;;18.60;99.90;;;;;;4997989;28;20452;-83
2023/09/07 00:09:15;;;;;;;85.93;32.23;;;18.70;99.90;;;;;;4998105;28;20758;-83
2023/09/07 00:11:41;;;;;;;88.67;34.83;;;18.80;99.90;;;;;;4980351;28;20191;-83
2023/09/07 00:14:07;;;;;;;86.47;32.87;;;18.70;99.90;;;;;;4998138;28;20942;-83
2023/09/07 00:16:38;;;;;;;82.90;28.63;;;18.60;99.90;;;;;;4998041;28;20449;-83
2023/09/07 00:19:04;;;;;;;85.13;29.17;;;18.70;99.90;;;;;;4998156;28;20410;-83
2023/09/07 00:21:30;;;;;;;90.27;39.00;;;18.80;99.90;;;;;;4997964;28;20771;-83
2023/09/07 00:23:56;;;;;;;87.77;34.03;;;18.70;99.90;;;;;;4997713;28;20434;-83
2023/09/07 00:26:21;;;;;;;80.50;29.20;;;18.80;99.90;;;;;;4980345;28;20635;-83
2023/09/07 00:28:47;;;;;;;83.17;25.50;;;18.70;99.90;;;;;;4997515;28;20509;-84
2023/09/07 00:31:13;;;;;;;87.20;32.53;;;18.60;99.90;;;;;;4997793;28;20194;-83
2023/09/07 00:33:39;;;;;;;81.53;27.33;;;18.60;99.90;;;;;;4998008;28;20410;-83
2023/09/07 00:36:05;;;;;;;81.20;23.03;;;18.60;99.90;;;;;;4997775;28;20527;-83
2023/09/07 00:38:30;;;;;;;79.17;26.57;;;18.60;99.90;;;;;;4997770;28;20167;-83
2023/09/07 00:40:56;;;;;;;87.03;30.67;;;18.60;99.90;;;;;;4997803;28;20453;-83
2023/09/07 00:43:22;;;;;;;79.73;24.33;;;18.70;99.90;;;;;;4998459;28;20171;-83
2023/09/07 00:45:47;;;;;;;79.17;23.10;;;18.60;99.90;;;;;;4999926;28;20194;-84
2023/09/07 00:48:16;;;;;;;78.97;23.77;;;18.50;99.90;;;;;;5000246;28;20186;-84
2023/09/07 00:50:42;;;;;;;87.13;29.60;;;18.50;99.90;;;;;;4999559;28;20186;-85
2023/09/07 00:53:10;;;;;;;80.60;23.83;;;18.50;99.90;;;;;;5000199;28;20403;-84
2023/09/07 00:55:38;;;;;;;78.03;23.23;;;18.50;99.90;;;;;;4982279;28;20412;-84
2023/09/07 00:58:04;;;;;;;82.57;25.63;;;18.40;99.90;;;;;;4981606;28;20421;-83
2023/09/07 01:00:31;;;;;;;85.03;28.03;;;18.40;99.90;;;;;;4997310;28;20430;-83
2023/09/07 01:02:57;;;;;;;77.70;21.90;;;18.40;99.90;;;;;;4997751;28;20413;-83
2023/09/07 01:05:43;;;;;;;78.40;20.83;;;18.40;99.90;;;;;;4997390;28;20403;-83
2023/09/07 01:08:19;;;;;;;80.10;25.03;;;18.40;99.90;;;;;;4980003;28;20237;-83
2023/09/07 01:10:45;;;;;;;86.93;28.10;;;18.30;99.90;;;;;;4996819;28;20430;-83
2023/09/07 01:13:10;;;;;;;80.87;28.73;;;18.30;99.90;;;;;;4997345;28;20405;-83
2023/09/07 01:15:38;;;;;;;80.10;26.50;;;18.40;99.90;;;;;;4996960;28;20174;-84
2023/09/07 01:18:05;;;;;;;79.40;23.60;;;18.30;99.90;;;;;;4979249;28;20203;-83
2023/09/07 01:20:33;;;;;;;86.33;28.27;;;18.30;99.90;;;;;;4997246;28;20426;-83
2023/09/07 01:22:59;;;;;;;77.03;24.33;;;18.30;99.90;;;;;;4997154;28;20457;-83
2023/09/07 01:25:24;;;;;;;78.73;22.80;;;18.30;99.90;;;;;;4979460;28;20426;-83
2023/09/07 01:27:51;;;;;;;78.70;21.23;;;18.20;99.90;;;;;;4997361;28;20175;-83
2023/09/07 01:30:17;;;;;;;76.90;20.43;;;18.20;99.90;;;;;;4996654;28;20191;-83
2023/09/07 01:32:43;;;;;;;77.77;20.53;;;18.20;99.90;;;;;;4996994;28;20441;-83
2023/09/07 01:35:10;;;;;;;77.10;19.57;;;18.10;99.90;;;;;;4979102;28;20406;-83
2023/09/07 01:37:36;;;;;;;75.30;18.80;;;18.10;99.90;;;;;;4996494;28;20333;-83
2023/09/07 01:40:07;;;;;;;77.80;16.73;;;18.10;99.90;;;;;;4996614;28;20450;-83
2023/09/07 01:42:33;;;;;;;76.27;18.50;;;18.10;99.90;;;;;;4996749;28;20202;-83
2023/09/07 01:44:58;;;;;;;82.03;19.63;;;18.20;99.90;;;;;;4996609;28;20398;-83
2023/09/07 01:47:24;;;;;;;77.93;18.13;;;18.20;99.90;;;;;;4996886;28;20910;-83
2023/09/07 01:49:50;;;;;;;74.80;17.27;;;18.10;99.90;;;;;;4996855;28;20221;-83
2023/09/07 01:52:15;;;;;;;76.00;16.93;;;18.00;99.90;;;;;;4996846;28;20231;-83
2023/09/07 01:54:41;;;;;;;75.40;18.83;;;18.00;99.90;;;;;;4979051;28;20179;-83
2023/09/07 01:57:07;;;;;;;80.57;16.90;;;18.00;99.90;;;;;;4996733;28;20183;-83
2023/09/07 01:59:32;;;;;;;75.13;17.77;;;18.00;99.90;;;;;;4996346;28;20168;-83
2023/09/07 02:01:58;;;;;;;76.70;17.83;;;18.00;99.90;;;;;;4997308;28;20168;-83
2023/09/07 02:04:24;;;;;;;75.73;19.10;;;18.00;99.90;;;;;;4996773;28;20168;-83
2023/09/07 02:09:20;;;;;;;75.40;17.57;;;18.00;99.90;;;;;;5350159;23;20702;-84
2023/09/07 02:14:14;;;;;;;76.93;15.73;;;18.00;99.90;;;;;;5014365;28;20293;-83
2023/09/07 02:16:39;;;;;;;73.73;16.20;;;18.10;99.90;;;;;;4998453;28;20461;-83
2023/09/07 02:19:06;;;;;;;74.90;16.60;;;18.10;99.90;;;;;;5016094;28;20163;-83
2023/09/07 02:21:32;;;;;;;75.57;17.37;;;18.00;99.90;;;;;;4980232;28;20198;-83
2023/09/07 02:23:58;;;;;;;73.37;15.70;;;18.00;99.90;;;;;;4996717;28;20402;-83
2023/09/07 02:26:24;;;;;;;77.63;16.40;;;18.00;99.90;;;;;;4979347;28;20199;-83
2023/09/07 02:28:50;;;;;;;74.80;17.70;;;17.90;99.90;;;;;;4978871;28;20399;-83
2023/09/07 02:31:15;;;;;;;78.87;17.13;;;17.90;99.90;;;;;;4997115;28;20493;-83
2023/09/07 02:33:41;;;;;;;73.70;16.20;;;17.90;99.90;;;;;;4996525;28;20179;-83
2023/09/07 02:36:07;;;;;;;74.50;14.27;;;17.80;99.90;;;;;;4997861;28;20202;-83
2023/09/07 02:38:32;;;;;;;75.67;18.00;;;17.70;99.90;;;;;;5000593;28;20715;-83
2023/09/07 02:40:58;;;;;;;77.47;15.30;;;17.70;99.90;;;;;;5000045;28;20191;-83
2023/09/07 02:43:24;;;;;;;74.93;14.50;;;17.70;99.90;;;;;;4999854;28;20531;-83
2023/09/07 02:45:50;;;;;;;75.33;14.90;;;17.70;99.90;;;;;;5137903;23;20607;-83
2023/09/07 02:48:16;;;;;;;78.83;16.00;;;17.80;99.90;;;;;;5278375;23;20302;-82
2023/09/07 02:50:42;;;;;;;75.63;16.23;;;17.70;99.90;;;;;;4987375;28;20451;-82
2023/09/07 02:53:08;;;;;;;74.40;15.27;;;17.70;99.90;;;;;;4962417;28;20176;-82
2023/09/07 02:55:34;;;;;;;76.30;16.50;;;17.70;99.90;;;;;;4979986;28;20435;-83
2023/09/07 02:58:03;;;;;;;75.30;15.90;;;17.70;99.90;;;;;;4979739;28;21016;-83
2023/09/07 03:00:28;;;;;;;75.27;15.50;;;17.60;99.90;;;;;;4980010;28;20440;-83
2023/09/07 03:02:54;;;;;;;74.37;14.80;;;17.60;99.90;;;;;;4979879;28;20403;-83
2023/09/07 03:05:20;;;;;;;74.90;16.83;;;17.60;99.90;;;;;;4962458;28;20171;-83
2023/09/07 03:07:47;;;;;;;73.57;14.33;;;17.60;99.90;;;;;;4979953;28;20183;-83
2023/09/07 03:10:13;;;;;;;75.77;16.60;;;17.50;99.90;;;;;;4979205;28;20187;-82
2023/09/07 03:12:39;;;;;;;74.80;14.40;;;17.40;99.90;;;;;;4979701;28;20439;-83
2023/09/07 03:15:05;;;;;;;78.13;17.73;;;17.40;99.90;;;;;;4961903;28;20462;-82
2023/09/07 03:17:30;;;;;;;76.87;18.10;;;17.40;99.90;;;;;;4962483;28;20200;-82
2023/09/07 03:19:56;;;;;;;75.90;18.70;;;17.40;99.90;;;;;;4979442;28;20442;-82
2023/09/07 03:22:25;;;;;;;74.20;17.87;;;17.30;99.90;;;;;;4962223;28;20171;-82
2023/09/07 03:24:51;;;;;;;75.57;18.87;;;17.30;99.90;;;;;;4979439;28;20490;-83
2023/09/07 03:27:17;;;;;;;77.50;19.80;;;17.20;99.90;;;;;;4962142;28;20412;-83
2023/09/07 03:29:44;;;;;;;73.50;17.70;;;17.20;99.90;;;;;;4979234;28;20472;-82
2023/09/07 03:32:10;;;;;;;77.13;21.77;;;17.20;99.90;;;;;;4979438;28;20168;-83
2023/09/07 03:34:36;;;;;;;76.60;22.37;;;17.10;99.90;;;;;;4978568;28;20407;-83
2023/09/07 03:37:02;;;;;;;75.90;22.60;;;17.10;99.90;;;;;;4978990;28;20843;-82
2023/09/07 03:39:28;;;;;;;75.70;21.57;;;17.00;99.90;;;;;;4979006;28;20164;-83
2023/09/07 03:41:54;;;;;;;76.90;23.17;;;17.00;99.90;;;;;;4979005;28;20942;-83
2023/09/07 03:44:19;;;;;;;79.90;27.13;;;17.00;99.90;;;;;;4979132;28;20411;-83
2023/09/07 03:46:45;;;;;;;79.90;25.27;;;16.90;99.90;;;;;;4978512;28;20168;-82
2023/09/07 03:49:10;;;;;;;79.73;27.37;;;16.90;99.90;;;;;;4979060;28;20567;-82
2023/09/07 03:51:37;;;;;;;88.10;23.13;;;17.00;99.90;;;;;;4978883;28;20199;-82
2023/09/07 03:54:03;;;;;;;77.57;19.93;;;17.20;99.90;;;;;;4978798;28;20164;-83
2023/09/07 03:56:28;;;;;;;83.97;27.63;;;17.10;99.90;;;;;;4978873;28;20772;-82
2023/09/07 03:58:54;;;;;;;88.13;25.40;;;17.10;99.90;;;;;;4978397;28;20243;-83
2023/09/07 04:01:20;;;;;;;79.60;28.47;;;17.10;99.90;;;;;;4978402;28;20180;-82
2023/09/07 04:03:45;;;;;;;79.93;28.83;;;17.20;99.90;;;;;;4978748;28;20180;-82
2023/09/07 04:06:11;;;;;;;79.57;27.60;;;17.10;99.90;;;;;;4978356;28;20171;-82
2023/09/07 04:08:37;;;;;;;84.20;33.67;;;17.10;99.90;;;;;;4978391;28;20168;-82
2023/09/07 04:11:04;;;;;;;84.83;36.37;;;17.00;99.90;;;;;;4978413;28;20196;-82
2023/09/07 04:13:30;;;;;;;80.73;28.20;;;17.10;99.90;;;;;;4978204;28;20419;-82
2023/09/07 04:15:55;;;;;;;83.10;28.83;;;17.10;99.90;;;;;;4978308;28;20407;-82
2023/09/07 04:18:21;;;;;;;83.80;34.13;;;17.20;99.90;;;;;;4961127;28;20215;-82
2023/09/07 04:20:47;;;;;;;82.90;29.23;;;17.10;99.90;;;;;;4978149;28;20242;-82
2023/09/07 04:23:12;;;;;;;80.10;26.60;;;17.10;99.90;;;;;;4978207;28;20630;-82
2023/09/07 04:25:41;;;;;;;82.70;30.23;;;17.10;99.90;;;;;;4978687;28;20710;-82
2023/09/07 04:28:07;;;;;;;83.40;32.10;;;17.10;99.90;;;;;;4977983;28;20168;-82
2023/09/07 04:30:40;;;;;;;90.03;32.23;;;17.10;99.90;;;;;;4977559;28;20468;-83
2023/09/07 04:33:05;;;;;;;79.40;23.17;;;17.10;99.90;;;;;;4977939;28;20407;-82
2023/09/07 04:35:33;;;;;;;80.10;28.60;;;17.10;99.90;;;;;;4977872;28;20911;-82
2023/09/07 04:37:59;;;;;;;81.50;24.60;;;17.10;99.90;;;;;;4978546;28;20282;-82
2023/09/07 04:40:25;;;;;;;79.67;26.93;;;17.10;99.90;;;;;;4978006;28;20459;-82
2023/09/07 04:42:51;;;;;;;80.47;26.13;;;17.00;99.90;;;;;;4978371;28;20164;-82
2023/09/07 04:45:17;;;;;;;80.17;27.03;;;16.90;99.90;;;;;;4978285;28;20737;-82
2023/09/07 04:47:43;;;;;;;81.10;29.90;;;16.90;99.90;;;;;;4960628;28;20483;-82
2023/09/07 04:50:09;;;;;;;85.07;28.20;;;16.90;99.90;;;;;;5044799;23;22326;-83
2023/09/07 04:52:35;;;;;;;81.00;27.80;;;16.90;99.90;;;;;;5018381;28;20452;-83
2023/09/07 04:55:02;;;;;;;81.70;26.63;;;16.90;99.90;;;;;;5017855;28;20398;-83
2023/09/07 04:57:27;;;;;;;79.30;25.20;;;16.80;99.90;;;;;;5016855;28;20448;-83
2023/09/07 04:59:53;;;;;;;79.13;26.80;;;16.90;99.90;;;;;;5011883;28;20799;-83
2023/09/07 05:02:19;;;;;;;82.07;27.77;;;16.70;99.90;;;;;;4998261;28;20642;-84
2023/09/07 05:04:45;;;;;;;81.17;29.43;;;16.70;99.90;;;;;;4998324;28;20203;-84
2023/09/07 05:07:10;;;;;;;83.60;34.23;;;16.70;99.90;;;;;;4997579;28;20539;-83
2023/09/07 05:09:36;;;;;;;82.83;33.63;;;16.60;99.90;;;;;;4980348;28;20465;-84
2023/09/07 05:12:02;;;;;;;84.97;37.80;;;16.60;99.90;;;;;;4998267;28;20639;-84
2023/09/07 05:14:29;;;;;;;83.03;34.43;;;16.60;99.90;;;;;;4980224;28;20178;-84
2023/09/07 05:16:56;;;;;;;83.33;34.53;;;16.60;99.90;;;;;;4980121;28;20453;-81
2023/09/07 05:19:22;;;;;;;87.20;36.37;;;16.70;99.90;;;;;;4979837;28;20449;-81
2023/09/07 05:21:48;;;;;;;84.63;35.50;;;16.70;99.90;;;;;;4996292;28;20406;-81
2023/09/07 05:24:15;;;;;;;86.10;36.70;;;16.70;99.90;;;;;;4996433;28;20766;-81
2023/09/07 05:26:42;;;;;;;81.43;33.67;;;16.70;99.90;;;;;;4978885;28;20171;-81
2023/09/07 05:29:08;;;;;;;86.33;33.43;;;16.80;99.90;;;;;;4978772;28;20414;-80
2023/09/07 05:31:33;;;;;;;85.30;34.43;;;16.80;99.90;;;;;;4978758;28;20437;-81
2023/09/07 05:34:00;;;;;;;80.37;32.73;;;16.80;99.90;;;;;;4996785;28;20170;-81
2023/09/07 05:36:27;;;;;;;82.87;35.00;;;16.70;99.90;;;;;;4996366;28;20159;-81
2023/09/07 05:38:52;;;;;;;82.20;34.57;;;16.80;99.90;;;;;;4978605;28;20423;-81
2023/09/07 05:41:18;;;;;;;83.67;35.73;;;16.80;99.90;;;;;;4978674;28;20497;-81
2023/09/07 05:43:44;;;;;;;84.10;36.83;;;16.80;99.90;;;;;;4978016;28;20179;-81
2023/09/07 05:46:09;;;;;;;83.50;37.23;;;16.80;99.90;;;;;;4979307;28;20199;-82
2023/09/07 05:48:35;;;;;;;87.20;38.37;;;16.80;99.90;;;;;;4996467;28;20705;-82
2023/09/07 05:51:01;;;;;;;85.87;35.63;;;16.90;99.90;;;;;;4996492;28;20206;-82
2023/09/07 05:53:26;;;;;;;81.90;35.93;;;16.90;99.90;;;;;;4979437;28;20643;-82
2023/09/07 05:55:52;;;;;;;81.50;32.87;;;17.00;99.90;;;;;;4996415;28;20163;-82
2023/09/07 05:58:19;;;;;;;84.33;36.57;;;17.00;99.90;;;;;;4978972;28;20191;-82
2023/09/07 06:00:44;;;;;;;85.03;38.27;;;17.10;99.90;;;;;;4996875;28;20671;-82
2023/09/07 06:03:10;;;;;;;82.43;34.80;;;17.10;99.90;;;;;;4996514;28;20410;-82
2023/09/07 06:05:38;;;;;;;81.70;31.23;;;17.20;99.90;;;;;;4996486;28;20203;-82
2023/09/07 06:08:05;;;;;;;84.93;34.17;;;17.20;99.90;;;;;;4978852;28;20411;-82
2023/09/07 06:10:32;;;;;;;82.87;33.43;;;17.20;99.90;;;;;;4997768;28;20425;-83
2023/09/07 06:12:58;;;;;;;83.00;33.33;;;17.20;99.90;;;;;;5000731;28;20413;-83
2023/09/07 06:15:24;;;;;;;84.27;29.07;;;17.30;99.90;;;;;;5000357;28;20627;-83
2023/09/07 06:17:50;;;;;;;83.60;33.30;;;17.40;99.90;;;;;;4982837;28;20455;-83
2023/09/07 06:20:16;;;;;;;79.77;25.77;;;17.60;99.90;;;;;;5001062;28;20426;-83
2023/09/07 06:22:41;;;;;;;81.20;25.97;;;17.70;99.90;;;;;;5001224;28;20182;-84
2023/09/07 06:25:07;;;;;;;82.57;27.50;;;17.60;99.90;;;;;;5001265;28;20402;-83
2023/09/07 06:27:33;;;;;;;79.33;26.33;;;17.60;99.90;;;;;;4983118;28;20175;-83
2023/09/07 06:29:59;;;;;;;82.27;26.77;;;17.70;99.90;;;;;;4982519;28;20786;-83
2023/09/07 06:32:24;;;;;;;81.00;27.20;;;17.70;99.90;;;;;;4983862;28;20175;-83
2023/09/07 06:34:50;;;;;;;82.70;29.70;;;17.80;99.90;;;;;;5000542;28;20278;-83
2023/09/07 06:37:16;;;;;;;86.60;29.20;;;17.80;99.90;;;;;;4983195;28;20245;-83
2023/09/07 06:39:45;;;;;;;80.97;27.63;;;17.80;99.90;;;;;;5000533;28;20183;-83
2023/09/07 06:42:10;;;;;;;78.77;21.60;;;17.90;99.90;;;;;;4982365;28;20414;-83
2023/09/07 06:44:36;;;;;;;74.77;17.37;;;18.00;99.90;;;;;;4982417;28;20490;-83
2023/09/07 06:47:02;;;;;;;78.00;17.50;;;18.00;99.90;;;;;;5000220;28;20655;-83
2023/09/07 06:49:29;;;;;;;79.47;19.53;;;18.10;99.90;;;;;;4982998;28;20178;-83
2023/09/07 06:51:56;;;;;;;76.20;18.70;;;18.10;99.90;;;;;;4982522;28;20802;-83
2023/09/07 06:54:22;;;;;;;77.90;21.30;;;18.20;99.90;;;;;;4999838;28;20406;-83
2023/09/07 06:56:48;;;;;;;77.53;17.90;;;18.30;99.90;;;;;;5000157;28;20480;-83
2023/09/07 06:59:14;;;;;;;79.00;19.60;;;18.40;99.90;;;;;;4999893;28;20413;-83
2023/09/07 07:01:39;;;;;;;85.90;19.00;;;18.50;99.90;;;;;;4999889;28;20250;-83
2023/09/07 07:04:06;;;;;;;77.33;16.27;;;18.50;99.90;;;;;;4999608;28;20406;-83
2023/09/07 07:06:32;;;;;;;79.87;17.60;;;18.60;99.90;;;;;;4999482;28;20213;-83
2023/09/07 07:08:57;;;;;;;81.23;18.50;;;18.70;99.90;;;;;;5000209;28;20414;-83
2023/09/07 07:11:23;;;;;;;80.80;20.57;;;18.70;99.90;;;;;;4981746;28;20193;-83
2023/09/07 07:13:49;;;;;;;80.17;18.47;;;18.80;99.90;;;;;;4982132;28;20254;-83
2023/09/07 07:16:16;;;;;;;79.17;17.70;;;18.90;99.90;;;;;;4999774;28;20164;-83
2023/09/07 07:18:42;;;;;;;77.60;20.77;;;19.00;99.90;;;;;;4999336;28;20191;-83
2023/09/07 07:21:08;;;;;;;80.20;22.67;;;19.00;99.90;;;;;;4982541;28;20457;-83
2023/09/07 07:23:35;;;;;;;76.20;17.07;;;19.10;99.90;;;;;;4998841;28;20219;-83
2023/09/07 07:26:00;;;;;;;79.33;24.33;;;19.20;99.90;;;;;;4981655;28;20938;-83
2023/09/07 07:28:26;;;;;;;79.77;26.53;;;19.20;99.90;;;;;;4999559;28;20431;-83
2023/09/07 07:30:53;;;;;;;79.50;30.40;;;19.30;97.00;;;;;;4999616;28;20191;-83
2023/09/07 07:33:19;;;;;;;90.20;41.43;;;19.50;92.80;;;;;;4999457;28;20582;-83
2023/09/07 07:35:46;;;;;;;90.80;60.27;;;19.60;79.10;;;;;;4999986;28;20426;-83
2023/09/07 07:38:14;;;;;;;84.57;43.87;;;19.70;77.10;;;;;;4999384;28;20980;-83
2023/09/07 07:40:40;;;;;;;91.40;63.47;;;19.90;69.00;;;;;;4999355;28;20183;-83
2023/09/07 07:43:06;;;;;;;96.87;71.33;;;20.00;62.90;;;;;;4999394;28;20775;-84
2023/09/07 07:45:36;;;;;;;97.10;71.07;;;20.00;58.50;;;;;;4982742;28;20414;-83
2023/09/07 07:48:05;;;;;;;85.83;41.07;;;20.20;57.70;;;;;;4999564;28;20461;-84
2023/09/07 07:50:31;;;;;;;90.87;42.87;;;20.20;38.10;;;;;;4982598;28;20458;-83
2023/09/07 07:52:57;;;;;;;83.67;43.57;;;20.20;49.70;;;;;;4999836;28;20403;-83
2023/09/07 07:55:22;;;;;;;82.87;40.33;;;20.30;39.10;;;;;;4999249;28;20894;-83
2023/09/07 07:57:48;;;;;;;85.07;48.03;;;20.30;44.60;;;;;;4999142;28;20190;-83
2023/09/07 08:00:15;;;;;;;83.40;46.50;;;20.40;37.80;;;;;;4999388;28;20213;-83
2023/09/07 08:02:41;;;;;;;82.87;42.43;;;20.50;25.90;;;;;;4998930;28;20167;-83
2023/09/07 08:05:07;;;;;;;82.27;37.27;;;20.60;23.70;;;;;;4999062;28;20457;-83
2023/09/07 08:07:32;;;;;;;81.90;34.20;;;20.80;6.00;;;;;;4998563;28;20241;-83
2023/09/07 08:09:58;;;;;;;78.90;32.80;;;20.80;1.00;;;;;;4998434;28;20426;-83
2023/09/07 08:12:23;;;;;;;81.30;30.07;;;20.90;1.00;;;;;;4998625;28;20673;-83
2023/09/07 08:14:49;;;;;;;80.23;36.57;;;21.00;1.00;;;;;;4998782;28;20194;-83
2023/09/07 08:17:15;;;;;;;83.97;38.20;;;21.10;1.00;;;;;;4999095;28;20206;-83
2023/09/07 08:19:41;;;;;;;79.97;30.90;;;21.10;1.00;;;;;;4981528;28;20668;-83
2023/09/07 08:22:08;;;;;;;76.07;24.37;;;21.20;1.00;;;;;;4999086;28;20246;-83
2023/09/07 08:24:34;;;;;;;75.47;23.30;;;21.20;1.00;;;;;;4981363;28;20177;-83
2023/09/07 08:27:00;;;;;;;75.40;23.10;;;21.30;1.00;;;;;;4981029;28;20419;-82
2023/09/07 08:29:26;;;;;;;77.87;20.00;;;21.30;1.00;;;;;;4998240;28;20250;-83
2023/09/07 08:31:57;;;;;;;73.40;16.97;;;21.40;1.00;;;;;;4998705;28;20250;-82
2023/09/07 08:34:24;;;;;;;75.57;18.10;;;21.50;1.00;;;;;;4997547;28;20395;-83
2023/09/07 08:36:49;;;;;;;74.00;19.10;;;21.60;1.00;;;;;;4980805;28;20422;-83
2023/09/07 08:39:16;;;;;;;73.70;14.40;;;21.70;1.00;;;;;;4998202;28;20486;-83
2023/09/07 08:41:49;;;;;;;73.60;14.70;;;21.70;1.00;;;;;;4998064;28;20179;-83
2023/09/07 08:44:17;;;;;;;74.50;11.13;;;21.80;1.00;;;;;;4980601;28;20419;-82
2023/09/07 08:46:44;;;;;;;73.40;12.10;;;21.80;1.00;;;;;;4998101;28;20407;-82
2023/09/07 08:49:11;;;;;;;74.47;17.97;;;21.80;1.00;;;;;;4980568;28;20414;-82
2023/09/07 08:51:38;;;;;;;72.50;14.10;;;21.90;1.00;;;;;;4980083;28;20446;-82
2023/09/07 08:54:04;;;;;;;74.43;15.00;;;22.00;1.00;;;;;;4980290;28;20457;-82
2023/09/07 08:56:31;;;;;;;72.07;12.47;;;22.10;1.00;;;;;;4998338;28;20406;-82
2023/09/07 08:59:00;;;;;;;74.13;11.20;;;22.30;1.00;;;;;;4998358;28;20454;-82
2023/09/07 09:01:26;;;;;;;71.10;8.80;;;22.40;1.00;;;;;;4997455;28;20419;-82
2023/09/07 09:03:52;;;;;;;71.77;8.30;;;22.40;1.00;;;;;;4997863;28;20402;-82
2023/09/07 09:06:22;;;;;;;75.70;8.80;;;22.60;1.00;;;;;;4980038;28;20830;-82
2023/09/07 09:08:56;;;;;;;73.43;7.50;;;22.70;1.00;;;;;;4997716;28;20402;-82
2023/09/07 09:11:23;;;;;;;73.03;10.10;;;22.70;1.00;;;;;;4997867;28;20464;-82
2023/09/07 09:13:53;;;;;;;71.60;8.30;;;22.80;1.00;;;;;;4980254;28;20414;-82
2023/09/07 09:16:20;;;;;;;70.90;8.93;;;22.90;1.00;;;;;;4997952;28;20405;-82
2023/09/07 09:18:55;;;;;;;71.13;8.53;;;22.90;1.00;;;;;;4997149;28;20521;-82
2023/09/07 09:21:23;;;;;;;71.60;8.70;;;23.00;1.00;;;;;;4997733;28;20441;-82
2023/09/07 09:23:51;;;;;;;74.17;9.47;;;23.10;1.00;;;;;;4998177;28;20413;-83
2023/09/07 09:26:17;;;;;;;71.50;9.23;;;23.10;1.00;;;;;;4979970;28;20941;-82
2023/09/07 09:28:47;;;;;;;70.57;7.60;;;23.20;1.00;;;;;;4980435;28;20411;-82
2023/09/07 09:31:14;;;;;;;70.67;8.30;;;23.20;1.00;;;;;;4980317;28;20433;-82
2023/09/07 09:33:41;;;;;;;70.50;7.63;;;23.30;1.00;;;;;;4997765;28;20997;-82
2023/09/07 09:36:07;;;;;;;72.80;8.00;;;23.40;1.00;;;;;;4979875;28;20822;-83
2023/09/07 09:38:36;;;;;;;71.90;8.70;;;23.50;1.00;;;;;;4997088;28;20528;-82
2023/09/07 09:41:03;;;;;;;70.83;8.30;;;23.50;1.00;;;;;;4979856;28;20465;-82
2023/09/07 09:43:29;;;;;;;75.10;8.20;;;23.70;1.00;;;;;;4998590;28;20433;-82
2023/09/07 09:45:56;;;;;;;71.40;7.87;;;23.80;1.00;;;;;;5000181;28;20485;-81
2023/09/07 09:48:22;;;;;;;75.27;7.73;;;24.00;1.00;;;;;;5001174;28;20178;-81
2023/09/07 09:50:49;;;;;;;74.00;7.87;;;24.10;1.00;;;;;;5001868;28;20445;-82
2023/09/07 09:53:18;;;;;;;71.60;8.63;;;24.20;1.00;;;;;;5001337;28;20410;-82
2023/09/07 09:55:47;;;;;;;71.83;7.47;;;24.40;1.00;;;;;;4984388;28;20410;-81
2023/09/07 09:58:14;;;;;;;72.47;8.50;;;24.40;1.00;;;;;;5001102;28;20858;-81
2023/09/07 10:00:49;;;;;;;72.80;11.30;;;24.60;1.00;;;;;;5000745;28;20461;-81
2023/09/07 10:03:26;;;;;;;73.93;12.50;;;24.70;1.00;;;;;;4983424;28;20414;-83
2023/09/07 10:05:52;;;;;;;79.73;11.00;;;24.80;1.00;;;;;;5001263;28;20399;-81
2023/09/07 10:08:19;;;;;;;72.87;12.17;;;24.90;1.00;;;;;;5000396;28;20402;-82
2023/09/07 10:10:49;;;;;;;75.67;15.87;;;25.10;1.00;;;;;;4983362;28;20442;-81
2023/09/07 10:13:15;;;;;;;72.57;12.67;;;25.20;1.00;;;;;;5001297;28;20501;-82
2023/09/07 10:15:41;;;;;;;75.00;11.47;;;25.30;1.00;;;;;;5000892;28;20442;-82
2023/09/07 10:18:15;;;;;;;72.40;12.53;;;25.40;1.00;;;;;;5001425;28;20449;-82
2023/09/07 10:20:58;;;;;;;76.47;8.37;;;25.70;1.00;;;;;;5001293;28;20643;-82
2023/09/07 10:23:35;;;;;;;72.90;6.40;;;26.00;1.00;;;;;;4983096;28;20771;-83
2023/09/07 10:26:04;;;;;;;74.13;8.10;;;26.10;1.00;;;;;;5000366;28;20391;-81
2023/09/07 10:28:30;;;;;;;70.87;5.40;;;26.20;1.00;;;;;;4982952;28;20417;-82
2023/09/07 10:31:07;;;;;;;71.57;5.27;;;26.30;1.00;;;;;;5000532;28;20790;-82
2023/09/07 10:33:34;;;;;;;72.60;5.80;;;26.50;1.00;;;;;;5001424;28;20148;-82
2023/09/07 10:36:01;;;;;;;72.27;5.60;;;26.50;1.00;;;;;;5000979;28;20407;-83
2023/09/07 10:38:28;;;;;;;72.67;8.87;;;26.80;1.00;;;;;;4983044;28;20541;-82
2023/09/07 10:40:58;;;;;;;76.10;9.50;;;27.00;1.00;;;;;;5000817;28;20937;-83
2023/09/07 10:43:25;;;;;;;73.27;10.27;;;27.10;1.00;;;;;;5001026;28;20910;-82
2023/09/07 10:45:51;;;;;;;72.70;10.47;;;27.30;1.00;;;;;;5001293;28;20398;-82
2023/09/07 10:48:17;;;;;;;72.53;11.00;;;27.60;1.00;;;;;;5001613;28;20502;-82
2023/09/07 10:50:44;;;;;;;72.20;11.47;;;27.80;1.00;;;;;;5052090;23;20218;-83
2023/09/07 10:53:13;;;;;;;73.83;9.90;;;27.80;1.00;;;;;;5001294;28;20163;-83
2023/09/07 10:55:39;;;;;;;74.10;11.70;;;28.10;1.00;;;;;;4982574;28;20402;-82
2023/09/07 10:58:05;;;;;;;71.70;11.47;;;28.00;1.00;;;;;;4999530;28;20500;-83
2023/09/07 11:00:31;;;;;;;72.77;11.27;;;27.90;1.00;;;;;;5000223;28;20427;-82
2023/09/07 11:02:56;;;;;;;73.37;10.80;;;28.00;1.00;;;;;;5000854;28;20177;-83
2023/09/07 11:05:22;;;;;;;73.80;11.37;;;28.20;1.00;;;;;;4983094;28;20259;-82
2023/09/07 11:07:48;;;;;;;76.17;12.07;;;28.30;1.00;;;;;;5000491;28;20227;-83
2023/09/07 11:10:13;;;;;;;75.67;12.27;;;28.40;1.00;;;;;;5001034;28;20198;-82
2023/09/07 11:12:40;;;;;;;74.87;14.00;;;28.60;1.00;;;;;;5000857;28;20168;-83
2023/09/07 11:15:10;;;;;;;74.07;12.27;;;28.90;1.00;;;;;;5000651;28;20172;-83
2023/09/07 11:17:42;;;;;;;73.80;14.90;;;29.00;1.00;;;;;;5000660;28;20505;-83
2023/09/07 11:20:08;;;;;;;74.27;12.20;;;29.00;1.00;;;;;;5000292;28;20431;-83
2023/09/07 11:22:38;;;;;;;73.80;12.00;;;29.00;1.00;;;;;;5001025;28;20903;-83
2023/09/07 11:25:05;;;;;;;73.57;11.53;;;29.00;1.00;;;;;;5000574;28;20413;-83
2023/09/07 11:27:32;;;;;;;73.77;12.87;;;29.00;1.00;;;;;;5000102;28;20480;-83
2023/09/07 11:29:58;;;;;;;72.80;12.53;;;29.00;1.00;;;;;;5000015;28;20453;-83
2023/09/07 11:32:24;;;;;;;72.87;9.40;;;29.20;1.00;;;;;;5000466;28;20492;-83
2023/09/07 11:34:53;;;;;;;76.23;15.53;;;29.10;1.00;;;;;;5000545;28;20424;-82
2023/09/07 11:37:24;;;;;;;73.47;12.20;;;28.90;1.00;;;;;;4999897;28;20202;-83
2023/09/07 11:39:49;;;;;;;71.80;6.93;;;28.90;1.00;;;;;;5000585;28;20435;-83
2023/09/07 11:42:15;;;;;;;72.10;8.90;;;28.90;1.00;;;;;;5000088;28;20487;-81
2023/09/07 11:44:40;;;;;;;72.00;8.23;;;29.20;1.00;;;;;;4999760;28;20204;-81
2023/09/07 11:47:06;;;;;;;72.10;8.30;;;29.20;1.00;;;;;;4982427;28;20177;-81
2023/09/07 11:49:32;;;;;;;71.27;5.67;;;29.20;1.00;;;;;;5000132;28;20169;-81
2023/09/07 11:51:58;;;;;;;70.93;6.00;;;29.40;1.00;;;;;;5000398;28;20531;-81
2023/09/07 11:54:24;;;;;;;69.73;5.40;;;29.50;1.00;;;;;;4999836;28;20932;-81
2023/09/07 11:56:50;;;;;;;75.13;5.77;;;29.50;1.00;;;;;;5000864;28;20462;-81
2023/09/07 11:59:17;;;;;;;71.27;5.50;;;29.70;1.00;;;;;;5084700;23;20239;-83
2023/09/07 12:01:43;;;;;;;73.20;6.10;;;29.60;1.00;;;;;;5162938;23;20219;-81
2023/09/07 12:04:09;;;;;;;70.10;6.10;;;29.70;1.00;;;;;;4983705;28;20401;-81
2023/09/07 12:06:36;;;;;;;71.47;5.90;;;29.80;1.00;;;;;;4983870;28;20910;-81
2023/09/07 12:09:06;;;;;;;70.67;5.57;;;29.80;1.00;;;;;;4983432;28;20433;-81
2023/09/07 12:11:33;;;;;;;70.73;7.20;;;29.90;1.00;;;;;;4982893;28;20420;-81
2023/09/07 12:13:59;;;;;;;74.57;7.20;;;30.00;1.00;;;;;;4984852;28;20793;-82
2023/09/07 12:16:28;;;;;;;73.93;7.33;;;30.10;1.00;;;;;;4984149;28;20428;-81
2023/09/07 12:18:54;;;;;;;71.63;6.77;;;30.00;1.00;;;;;;4984469;28;20544;-81
2023/09/07 12:21:20;;;;;;;72.77;6.80;;;29.90;1.00;;;;;;4984136;28;20436;-81
2023/09/07 12:23:46;;;;;;;71.97;7.47;;;30.00;1.00;;;;;;4984791;28;20442;-81
2023/09/07 12:26:14;;;;;;;73.30;8.17;;;30.30;1.00;;;;;;4983530;28;20417;-81
2023/09/07 12:28:40;;;;;;;71.53;7.33;;;30.20;1.00;;;;;;4983261;28;20546;-81
2023/09/07 12:31:05;;;;;;;71.10;7.40;;;30.20;1.00;;;;;;4984683;28;20515;-81
2023/09/07 12:33:32;;;;;;;70.27;6.17;;;30.20;1.00;;;;;;4984852;28;20381;-81
2023/09/07 12:35:58;;;;;;;71.17;6.83;;;30.40;1.00;;;;;;4984769;28;20162;-81